Time;durP1;ratioP1;P1;durP2;ratioP2;P2;SDS_P1;SDS_P2;PMS_P1;PMS_P2;Temp;Humidity;BMP_temperature;BMP_pressure;BME280_temperature;BME280_humidity;BME280_pressure;Samples;Min_cycle;Max_cycle;Signal;HPM_P1;HPM_P2
2022/08/16 00:00:00;;;;;;;47.15;43.75;;;23.60;66.50;;;;;;5049554;28;20033;-78
2022/08/16 00:02:26;;;;;;;45.40;42.17;;;23.70;66.30;;;;;;5032326;28;20040;-78
2022/08/16 00:04:52;;;;;;;51.55;48.28;;;23.70;66.60;;;;;;5032854;28;20060;-78
2022/08/16 00:07:19;;;;;;;56.08;52.08;;;23.60;66.70;;;;;;5049731;28;20352;-78
2022/08/16 00:09:45;;;;;;;47.65;44.65;;;23.60;67.00;;;;;;5049611;28;20029;-78
2022/08/16 00:12:11;;;;;;;54.65;50.58;;;23.60;67.30;;;;;;5032481;28;20064;-78
2022/08/16 00:14:37;;;;;;;60.00;55.75;;;23.50;67.30;;;;;;5032857;28;20045;-78
2022/08/16 00:17:03;;;;;;;60.75;56.95;;;23.50;67.40;;;;;;5050231;28;20036;-77
2022/08/16 00:19:31;;;;;;;52.13;48.92;;;23.50;67.70;;;;;;5049528;28;20033;-78
2022/08/16 00:21:58;;;;;;;54.42;50.88;;;23.40;68.10;;;;;;5049512;28;20383;-78
2022/08/16 00:24:25;;;;;;;49.17;45.90;;;23.40;68.10;;;;;;5049447;28;20394;-78
2022/08/16 00:26:51;;;;;;;57.30;53.85;;;23.30;68.20;;;;;;5049353;28;20029;-78
2022/08/16 00:29:17;;;;;;;75.22;70.65;;;23.30;68.10;;;;;;5049538;28;20036;-78
2022/08/16 00:31:45;;;;;;;73.82;69.15;;;23.30;68.50;;;;;;5034094;28;20033;-78
2022/08/16 00:34:11;;;;;;;53.35;50.05;;;23.30;68.40;;;;;;5053408;28;20028;-78
2022/08/16 00:36:37;;;;;;;57.60;53.85;;;23.40;68.20;;;;;;5053253;28;20104;-78
2022/08/16 00:39:03;;;;;;;61.80;57.60;;;23.40;68.10;;;;;;5052937;28;20036;-78
2022/08/16 00:41:30;;;;;;;76.55;72.10;;;23.40;68.30;;;;;;5053076;28;20032;-78
2022/08/16 00:43:56;;;;;;;67.70;63.45;;;23.40;68.10;;;;;;5046749;28;20040;-78
2022/08/16 00:46:25;;;;;;;71.05;66.88;;;23.40;68.20;;;;;;5009526;28;20033;-78
2022/08/16 00:48:52;;;;;;;64.00;60.05;;;23.40;68.20;;;;;;5035837;28;20049;-78
2022/08/16 00:51:19;;;;;;;61.70;57.58;;;23.40;68.50;;;;;;5036225;28;20037;-78
2022/08/16 00:53:48;;;;;;;62.38;58.42;;;23.40;68.40;;;;;;5052707;28;20048;-78
2022/08/16 00:56:17;;;;;;;58.85;54.97;;;23.40;68.30;;;;;;5052928;28;20039;-77
2022/08/16 00:58:44;;;;;;;61.17;57.22;;;23.40;68.20;;;;;;5052859;28;20017;-77
2022/08/16 01:01:11;;;;;;;65.95;61.58;;;23.40;68.20;;;;;;5052375;28;20029;-78
2022/08/16 01:03:38;;;;;;;65.45;61.35;;;23.40;68.50;;;;;;5052583;28;20029;-78
2022/08/16 01:06:05;;;;;;;70.57;66.25;;;23.40;68.60;;;;;;5035949;28;20044;-78
2022/08/16 01:08:32;;;;;;;68.85;63.63;;;23.30;68.80;;;;;;5052364;28;20035;-78
2022/08/16 01:10:58;;;;;;;70.88;66.07;;;23.30;68.80;;;;;;5052557;28;20033;-78
2022/08/16 01:13:26;;;;;;;70.82;66.47;;;23.30;69.10;;;;;;5052624;28;20032;-78
2022/08/16 01:16:00;;;;;;;69.00;64.45;;;23.30;69.30;;;;;;5052189;28;20029;-78
2022/08/16 01:18:41;;;;;;;75.70;70.63;;;23.30;69.40;;;;;;5035629;28;20041;-78
2022/08/16 01:21:41;;;;;;;76.80;72.10;;;23.20;69.70;;;;;;5035719;28;20045;-78
2022/08/16 01:24:19;;;;;;;68.72;64.57;;;23.20;70.10;;;;;;5052086;28;20048;-78
2022/08/16 01:26:45;;;;;;;66.18;61.97;;;23.20;70.00;;;;;;5052186;28;20044;-78
2022/08/16 01:29:14;;;;;;;71.53;66.80;;;23.20;70.00;;;;;;5052273;28;20033;-78
2022/08/16 01:31:40;;;;;;;65.78;61.15;;;23.20;70.10;;;;;;5035110;28;20029;-78
2022/08/16 01:34:06;;;;;;;67.10;62.90;;;23.20;70.40;;;;;;5052095;28;20035;-78
2022/08/16 01:36:33;;;;;;;63.72;59.42;;;23.10;70.30;;;;;;5035341;28;20041;-78
2022/08/16 01:38:59;;;;;;;60.95;56.95;;;23.10;70.30;;;;;;5035044;28;20032;-78
2022/08/16 01:41:29;;;;;;;61.47;56.80;;;23.10;70.60;;;;;;5052006;28;20029;-78
2022/08/16 01:43:55;;;;;;;59.75;55.60;;;23.10;70.50;;;;;;5044801;28;20037;-78
2022/08/16 01:46:32;;;;;;;62.63;58.45;;;23.10;70.80;;;;;;5008053;28;20651;-78
2022/08/16 01:49:10;;;;;;;60.67;56.58;;;23.00;71.20;;;;;;5034961;28;20052;-78
2022/08/16 01:51:37;;;;;;;60.60;56.60;;;23.00;71.30;;;;;;5051534;28;20423;-78
2022/08/16 01:54:03;;;;;;;62.42;58.42;;;23.00;71.50;;;;;;5051842;28;20021;-77
2022/08/16 01:56:29;;;;;;;67.20;62.50;;;23.00;71.40;;;;;;5035125;28;20443;-78
2022/08/16 01:58:56;;;;;;;71.22;66.82;;;22.90;71.70;;;;;;5034776;28;20041;-78
2022/08/16 02:01:23;;;;;;;62.60;58.50;;;23.00;71.30;;;;;;5051101;28;20033;-78
2022/08/16 02:03:49;;;;;;;55.85;52.15;;;23.00;71.30;;;;;;5051768;28;20033;-78
2022/08/16 02:06:15;;;;;;;56.28;52.22;;;23.00;71.70;;;;;;5051317;28;20029;-78
2022/08/16 02:08:41;;;;;;;55.95;51.83;;;23.00;71.60;;;;;;5051725;28;20040;-78
2022/08/16 02:11:07;;;;;;;55.03;50.83;;;23.00;71.50;;;;;;5051632;28;20376;-77
2022/08/16 02:13:35;;;;;;;57.25;53.08;;;22.90;72.60;;;;;;5051517;28;20021;-77
2022/08/16 02:16:01;;;;;;;53.45;49.60;;;22.60;74.20;;;;;;5034110;28;20479;-78
2022/08/16 02:18:28;;;;;;;54.20;50.17;;;22.20;75.60;;;;;;5034993;28;20040;-77
2022/08/16 02:20:54;;;;;;;53.33;49.70;;;22.10;76.20;;;;;;5034490;28;20080;-77
2022/08/16 02:23:20;;;;;;;47.65;43.83;;;22.00;76.90;;;;;;5034581;28;20484;-78
2022/08/16 02:25:46;;;;;;;48.45;44.60;;;21.90;77.70;;;;;;5051181;28;20029;-77
2022/08/16 02:28:13;;;;;;;46.17;42.70;;;21.70;78.10;;;;;;5051086;28;20029;-78
2022/08/16 02:30:39;;;;;;;48.55;44.80;;;21.90;77.20;;;;;;5033915;28;20036;-78
2022/08/16 02:33:06;;;;;;;52.30;48.50;;;22.10;76.50;;;;;;5051299;28;20028;-78
2022/08/16 02:35:32;;;;;;;50.80;46.72;;;22.20;75.80;;;;;;5050458;28;20036;-77
2022/08/16 02:37:59;;;;;;;48.97;45.03;;;22.30;75.50;;;;;;5033891;28;20424;-78
2022/08/16 02:40:25;;;;;;;47.13;43.78;;;22.20;75.90;;;;;;5034491;28;20450;-78
2022/08/16 02:42:51;;;;;;;45.10;41.95;;;21.90;76.80;;;;;;5051089;28;20407;-77
2022/08/16 02:45:18;;;;;;;45.47;41.80;;;21.80;77.70;;;;;;5016875;28;20499;-78
2022/08/16 02:47:45;;;;;;;46.63;43.08;;;21.80;77.60;;;;;;5033940;28;20407;-78
2022/08/16 02:50:11;;;;;;;46.70;43.10;;;21.90;77.00;;;;;;5050267;28;20028;-78
2022/08/16 02:52:37;;;;;;;45.75;42.25;;;22.00;76.90;;;;;;5050915;28;20036;-78
2022/08/16 02:55:03;;;;;;;44.40;41.13;;;22.00;76.70;;;;;;5050600;28;20384;-78
2022/08/16 02:57:29;;;;;;;41.65;38.35;;;21.90;77.60;;;;;;5050391;28;20032;-77
2022/08/16 02:59:55;;;;;;;43.17;39.63;;;21.70;78.40;;;;;;5033646;28;20040;-78
2022/08/16 03:02:22;;;;;;;48.95;45.50;;;21.50;79.00;;;;;;5033611;28;20048;-78
2022/08/16 03:04:48;;;;;;;46.03;42.60;;;21.50;79.00;;;;;;5033391;28;20053;-78
2022/08/16 03:07:14;;;;;;;43.28;39.75;;;21.60;78.60;;;;;;5033551;28;20506;-78
2022/08/16 03:09:40;;;;;;;45.22;41.80;;;21.70;78.70;;;;;;5050542;28;20471;-78
2022/08/16 03:12:06;;;;;;;47.63;44.08;;;21.40;79.80;;;;;;5050278;28;20029;-78
2022/08/16 03:14:32;;;;;;;47.38;43.58;;;21.30;80.10;;;;;;5050504;28;20036;-78
2022/08/16 03:16:58;;;;;;;47.30;43.70;;;21.50;79.50;;;;;;5049575;28;20028;-78
2022/08/16 03:19:25;;;;;;;46.28;42.85;;;21.60;78.40;;;;;;5049898;28;20035;-78
2022/08/16 03:21:51;;;;;;;47.72;44.00;;;21.80;77.90;;;;;;5033292;28;20037;-77
2022/08/16 03:24:18;;;;;;;52.13;48.00;;;21.80;77.60;;;;;;5033285;28;20049;-78
2022/08/16 03:26:44;;;;;;;51.20;47.58;;;21.90;77.20;;;;;;5050080;28;20020;-78
2022/08/16 03:29:10;;;;;;;51.17;47.17;;;22.00;76.90;;;;;;5033547;28;20048;-77
2022/08/16 03:31:37;;;;;;;51.13;47.35;;;22.10;76.40;;;;;;5049149;28;20507;-78
2022/08/16 03:34:03;;;;;;;52.90;49.15;;;22.20;76.10;;;;;;5033069;28;20056;-78
2022/08/16 03:36:29;;;;;;;53.65;49.75;;;22.20;75.70;;;;;;5049298;28;20029;-78
2022/08/16 03:38:55;;;;;;;52.35;48.75;;;22.20;76.00;;;;;;5047166;28;20392;-78
2022/08/16 03:41:22;;;;;;;54.70;50.60;;;22.20;76.00;;;;;;5013570;28;20032;-78
2022/08/16 03:43:48;;;;;;;53.85;49.85;;;22.20;75.80;;;;;;5035030;28;20041;-78
2022/08/16 03:46:14;;;;;;;55.45;51.38;;;22.20;75.60;;;;;;5049014;28;20059;-78
2022/08/16 03:48:40;;;;;;;55.42;51.42;;;22.20;75.40;;;;;;5050705;28;20051;-78
2022/08/16 03:51:10;;;;;;;57.20;53.10;;;22.20;75.40;;;;;;5017058;28;20492;-78
2022/08/16 03:53:36;;;;;;;58.38;53.95;;;22.30;75.30;;;;;;5033523;28;20040;-78
2022/08/16 03:56:02;;;;;;;59.05;54.65;;;22.30;75.30;;;;;;5033282;28;20048;-78
2022/08/16 03:58:28;;;;;;;57.55;53.55;;;22.30;75.10;;;;;;5033268;28;20029;-78
2022/08/16 04:00:54;;;;;;;55.10;51.13;;;22.30;75.10;;;;;;5032772;28;20479;-78
2022/08/16 04:03:21;;;;;;;57.75;53.75;;;22.30;75.00;;;;;;5016143;28;20033;-78
2022/08/16 04:05:47;;;;;;;57.50;53.10;;;22.30;75.00;;;;;;5034952;28;20044;-78
2022/08/16 04:08:13;;;;;;;54.28;50.22;;;22.20;75.50;;;;;;5056155;28;20021;-78
2022/08/16 04:10:39;;;;;;;56.58;52.55;;;22.20;75.40;;;;;;5039508;28;20041;-77
2022/08/16 04:13:06;;;;;;;54.22;50.33;;;22.20;75.40;;;;;;5056467;28;20017;-78
2022/08/16 04:15:32;;;;;;;54.30;50.42;;;22.20;75.50;;;;;;5055887;28;20033;-77
2022/08/16 04:18:00;;;;;;;53.55;49.80;;;22.20;75.30;;;;;;5055796;28;20025;-77
2022/08/16 04:20:26;;;;;;;55.25;51.30;;;22.20;75.70;;;;;;5040191;28;20037;-78
2022/08/16 04:22:52;;;;;;;55.00;50.95;;;22.20;75.70;;;;;;5022819;28;20037;-78
2022/08/16 04:25:19;;;;;;;55.10;50.97;;;22.20;75.50;;;;;;5056144;28;20048;-78
2022/08/16 04:27:45;;;;;;;52.60;48.53;;;22.10;75.60;;;;;;5039460;28;20032;-78
2022/08/16 04:30:12;;;;;;;52.38;48.55;;;22.20;75.50;;;;;;5038951;28;20040;-78
2022/08/16 04:32:39;;;;;;;51.75;48.17;;;22.20;75.50;;;;;;5022235;28;20509;-78
2022/08/16 04:35:07;;;;;;;53.03;49.28;;;22.20;75.50;;;;;;5039337;28;20578;-78
2022/08/16 04:37:33;;;;;;;52.70;48.67;;;22.20;75.40;;;;;;5039502;28;20487;-78
2022/08/16 04:39:59;;;;;;;53.83;50.05;;;22.20;75.40;;;;;;5053992;28;20044;-77
2022/08/16 04:42:26;;;;;;;54.58;50.22;;;22.10;75.50;;;;;;5057397;28;20468;-78
2022/08/16 04:44:53;;;;;;;53.63;49.67;;;22.20;75.50;;;;;;5041519;28;20057;-78
2022/08/16 04:47:20;;;;;;;54.40;50.05;;;22.10;75.30;;;;;;5052333;28;20501;-78
2022/08/16 04:49:46;;;;;;;53.63;49.92;;;22.10;75.80;;;;;;5056012;28;20025;-78
2022/08/16 04:52:12;;;;;;;54.17;50.28;;;22.10;75.60;;;;;;5055902;28;20025;-78
2022/08/16 04:54:39;;;;;;;54.13;50.35;;;22.10;75.40;;;;;;5038915;28;20048;-78
2022/08/16 04:57:05;;;;;;;52.45;48.53;;;22.10;75.90;;;;;;5039083;28;20041;-78
2022/08/16 04:59:31;;;;;;;53.28;49.45;;;22.00;75.80;;;;;;5039010;28;20041;-78
2022/08/16 05:01:57;;;;;;;51.30;47.30;;;22.10;76.10;;;;;;5038123;28;20036;-78
2022/08/16 05:04:23;;;;;;;51.58;47.63;;;22.10;76.20;;;;;;5038985;28;20041;-78
2022/08/16 05:06:50;;;;;;;46.00;42.35;;;21.90;76.40;;;;;;5056939;28;20376;-78
2022/08/16 05:09:17;;;;;;;50.53;46.33;;;21.40;79.00;;;;;;5038858;28;20029;-78
2022/08/16 05:11:44;;;;;;;53.10;48.90;;;21.20;80.40;;;;;;5055776;28;20021;-78
2022/08/16 05:14:10;;;;;;;54.28;50.05;;;21.10;81.00;;;;;;5055631;28;20517;-78
2022/08/16 05:16:36;;;;;;;55.50;51.10;;;21.20;80.50;;;;;;5054625;28;20056;-77
2022/08/16 05:19:03;;;;;;;54.20;49.85;;;21.30;79.90;;;;;;5035846;28;20048;-77
2022/08/16 05:21:34;;;;;;;54.28;50.08;;;21.40;79.20;;;;;;5035910;28;20033;-77
2022/08/16 05:24:00;;;;;;;52.38;48.25;;;21.60;78.80;;;;;;5036170;28;20040;-77
2022/08/16 05:26:27;;;;;;;52.33;48.25;;;21.60;78.40;;;;;;5035541;28;20056;-77
2022/08/16 05:28:53;;;;;;;56.60;52.20;;;21.60;78.50;;;;;;5052425;28;20029;-77
2022/08/16 05:31:19;;;;;;;53.28;49.35;;;21.60;78.60;;;;;;5034843;28;20029;-77
2022/08/16 05:33:46;;;;;;;53.97;49.47;;;21.50;79.40;;;;;;5035536;28;20032;-77
2022/08/16 05:36:12;;;;;;;56.25;51.95;;;21.40;79.80;;;;;;5035219;28;20480;-77
2022/08/16 05:38:38;;;;;;;50.88;46.75;;;21.30;80.20;;;;;;5051894;28;20037;-77
2022/08/16 05:41:04;;;;;;;44.78;41.20;;;21.10;81.30;;;;;;5052149;28;20048;-77
2022/08/16 05:43:30;;;;;;;46.50;42.78;;;20.90;82.30;;;;;;5048995;28;20490;-77
2022/08/16 05:45:56;;;;;;;46.08;42.35;;;20.70;83.70;;;;;;5037602;28;20040;-77
2022/08/16 05:48:23;;;;;;;40.92;37.50;;;20.70;84.30;;;;;;5035020;28;20041;-77
2022/08/16 05:50:49;;;;;;;40.97;37.25;;;20.60;84.80;;;;;;5053093;28;20033;-77
2022/08/16 05:53:16;;;;;;;41.83;38.05;;;20.70;84.20;;;;;;5052101;28;20025;-77
2022/08/16 05:55:42;;;;;;;44.47;40.60;;;20.60;84.70;;;;;;5051909;28;20032;-78
2022/08/16 05:58:08;;;;;;;45.58;41.85;;;20.60;84.90;;;;;;5035009;28;20037;-77
2022/08/16 06:00:35;;;;;;;51.08;46.88;;;20.70;84.60;;;;;;5034496;28;20040;-77
2022/08/16 06:03:01;;;;;;;56.08;51.10;;;20.70;84.70;;;;;;5035379;28;20465;-77
2022/08/16 06:05:27;;;;;;;50.25;46.08;;;20.70;85.00;;;;;;5052836;28;20048;-77
2022/08/16 06:07:53;;;;;;;47.15;43.05;;;20.60;85.30;;;;;;5051698;28;20040;-78
2022/08/16 06:10:19;;;;;;;41.58;37.72;;;20.60;85.50;;;;;;5051463;28;20367;-77
2022/08/16 06:12:46;;;;;;;45.10;41.03;;;20.60;85.80;;;;;;5052386;28;20029;-77
2022/08/16 06:15:14;;;;;;;44.15;40.53;;;20.70;85.50;;;;;;5034804;28;20490;-77
2022/08/16 06:17:40;;;;;;;42.25;38.35;;;20.80;84.80;;;;;;5034711;28;20033;-77
2022/08/16 06:20:07;;;;;;;45.75;41.55;;;20.80;84.50;;;;;;5051240;28;20036;-77
2022/08/16 06:22:36;;;;;;;46.58;42.45;;;20.90;84.20;;;;;;5034798;28;20045;-77
2022/08/16 06:25:03;;;;;;;49.97;45.72;;;21.10;83.50;;;;;;5050006;28;20415;-77
2022/08/16 06:27:29;;;;;;;45.42;41.25;;;21.20;82.80;;;;;;5034076;28;20368;-77
2022/08/16 06:29:55;;;;;;;52.63;48.10;;;21.10;83.70;;;;;;5034363;28;20124;-77
2022/08/16 06:32:21;;;;;;;54.17;49.25;;;21.00;84.30;;;;;;5048751;28;20021;-77
2022/08/16 06:34:47;;;;;;;53.78;48.90;;;21.00;84.20;;;;;;5050974;28;20039;-77
2022/08/16 06:37:13;;;;;;;50.92;46.83;;;20.90;85.20;;;;;;5034221;28;20040;-77
2022/08/16 06:39:39;;;;;;;54.45;49.67;;;20.80;86.10;;;;;;5043593;28;20040;-77
2022/08/16 06:42:05;;;;;;;51.28;47.13;;;20.80;86.40;;;;;;5030854;28;20021;-77
2022/08/16 06:44:31;;;;;;;48.95;44.85;;;20.70;86.90;;;;;;5022256;28;20036;-77
2022/08/16 06:46:57;;;;;;;49.50;45.45;;;20.70;86.60;;;;;;5045971;28;20068;-77
2022/08/16 06:49:24;;;;;;;50.00;45.60;;;20.80;86.50;;;;;;5033832;28;20037;-77
2022/08/16 06:51:50;;;;;;;52.22;47.65;;;20.90;86.20;;;;;;5034431;28;20048;-77
2022/08/16 06:54:16;;;;;;;53.70;48.85;;;21.00;85.70;;;;;;5033945;28;20171;-77
2022/08/16 06:56:42;;;;;;;52.97;48.03;;;20.90;86.40;;;;;;5033411;28;20037;-77
2022/08/16 06:59:08;;;;;;;52.72;48.15;;;20.80;87.20;;;;;;5050559;28;20033;-77
2022/08/16 07:01:34;;;;;;;56.80;51.85;;;20.80;88.00;;;;;;5049990;28;20044;-78
2022/08/16 07:04:00;;;;;;;59.88;55.05;;;20.90;86.60;;;;;;5050633;28;20025;-77
2022/08/16 07:06:27;;;;;;;60.30;55.38;;;21.10;85.80;;;;;;5034165;28;20045;-77
2022/08/16 07:08:53;;;;;;;57.17;52.63;;;21.30;85.30;;;;;;5033800;28;20037;-77
2022/08/16 07:11:19;;;;;;;59.80;54.90;;;21.30;85.20;;;;;;5033073;28;20048;-77
2022/08/16 07:13:45;;;;;;;59.15;54.00;;;21.30;84.70;;;;;;5033913;28;20064;-77
2022/08/16 07:16:13;;;;;;;53.70;49.17;;;21.40;84.50;;;;;;5049941;28;20040;-77
2022/08/16 07:18:43;;;;;;;59.13;54.60;;;21.50;84.40;;;;;;5033650;28;20036;-77
2022/08/16 07:21:11;;;;;;;59.83;55.30;;;21.50;84.10;;;;;;5033625;28;20055;-77
2022/08/16 07:23:38;;;;;;;52.10;47.72;;;21.60;83.50;;;;;;5050349;28;20765;-77
2022/08/16 07:26:05;;;;;;;50.13;45.72;;;21.70;83.30;;;;;;5049508;28;20045;-77
2022/08/16 07:28:31;;;;;;;60.17;55.60;;;21.70;83.40;;;;;;5050272;28;20013;-78
2022/08/16 07:31:00;;;;;;;58.25;53.60;;;21.70;84.00;;;;;;5049636;28;20040;-77
2022/08/16 07:33:26;;;;;;;59.17;54.60;;;21.80;82.80;;;;;;5050057;28;20028;-78
2022/08/16 07:35:53;;;;;;;57.08;52.70;;;21.80;82.60;;;;;;5050006;28;20044;-78
2022/08/16 07:38:19;;;;;;;54.28;49.88;;;21.90;82.50;;;;;;5049870;28;20391;-77
2022/08/16 07:40:45;;;;;;;51.13;47.10;;;22.00;82.20;;;;;;5031950;28;20040;-77
2022/08/16 07:43:11;;;;;;;53.65;49.50;;;21.90;82.20;;;;;;5049803;28;20439;-78
2022/08/16 07:45:37;;;;;;;47.50;43.50;;;22.00;82.10;;;;;;5016257;28;20044;-77
2022/08/16 07:48:03;;;;;;;50.15;46.42;;;22.00;81.70;;;;;;5049688;28;20045;-77
2022/08/16 07:50:29;;;;;;;53.67;49.65;;;22.10;81.70;;;;;;5033045;28;20483;-77
2022/08/16 07:52:55;;;;;;;54.92;50.53;;;22.20;81.50;;;;;;5049856;28;20040;-78
2022/08/16 07:55:21;;;;;;;55.97;51.47;;;22.20;82.00;;;;;;5049576;28;20395;-78
2022/08/16 07:57:47;;;;;;;54.30;50.40;;;22.10;82.10;;;;;;5049721;28;20033;-77
2022/08/16 08:00:14;;;;;;;50.17;46.17;;;22.20;81.70;;;;;;5049246;28;20036;-77
2022/08/16 08:02:40;;;;;;;56.28;51.80;;;22.30;81.00;;;;;;5049704;28;20040;-79
2022/08/16 08:05:06;;;;;;;59.15;54.78;;;22.20;80.90;;;;;;5032993;28;20420;-77
2022/08/16 08:07:32;;;;;;;56.55;52.30;;;22.30;81.60;;;;;;5049693;28;20033;-77
2022/08/16 08:09:58;;;;;;;55.25;50.97;;;22.20;81.10;;;;;;5049225;28;20376;-77
2022/08/16 08:12:24;;;;;;;53.13;48.90;;;22.30;81.30;;;;;;5033262;28;20052;-76
2022/08/16 08:14:52;;;;;;;59.22;54.65;;;22.20;80.70;;;;;;5050759;28;20036;-77
2022/08/16 08:17:18;;;;;;;60.90;56.13;;;22.20;81.10;;;;;;5049134;28;20415;-76
2022/08/16 08:19:44;;;;;;;58.55;54.00;;;22.30;81.10;;;;;;5049464;28;20033;-76
2022/08/16 08:22:10;;;;;;;49.00;45.25;;;22.40;80.90;;;;;;5049563;28;20036;-76
2022/08/16 08:24:38;;;;;;;52.15;48.28;;;22.10;82.30;;;;;;5032448;28;20059;-76
2022/08/16 08:27:07;;;;;;;55.10;51.10;;;21.90;83.80;;;;;;5050337;28;20491;-79
2022/08/16 08:29:33;;;;;;;59.40;54.90;;;21.70;84.70;;;;;;5033240;28;20403;-77
2022/08/16 08:32:00;;;;;;;57.67;53.45;;;21.70;84.70;;;;;;5032143;28;20033;-77
2022/08/16 08:34:26;;;;;;;59.42;54.88;;;21.80;85.00;;;;;;5049491;28;20379;-77
2022/08/16 08:36:52;;;;;;;58.30;54.22;;;21.80;84.70;;;;;;5032360;28;20044;-76
2022/08/16 08:39:18;;;;;;;66.28;61.58;;;21.90;84.30;;;;;;5032067;28;20033;-76
2022/08/16 08:41:46;;;;;;;59.58;55.15;;;22.00;84.40;;;;;;5032672;28;20041;-76
2022/08/16 08:44:12;;;;;;;58.03;53.83;;;22.30;83.30;;;;;;5040813;28;20028;-76
2022/08/16 08:46:38;;;;;;;63.08;58.60;;;22.50;82.60;;;;;;5023832;28;20392;-76
2022/08/16 08:49:06;;;;;;;66.15;61.28;;;22.50;81.80;;;;;;5032842;28;20056;-77
2022/08/16 08:51:33;;;;;;;68.72;63.63;;;22.50;81.00;;;;;;5032923;28;20388;-77
2022/08/16 08:53:59;;;;;;;63.22;58.35;;;22.50;80.80;;;;;;5036022;28;20480;-76
2022/08/16 08:56:25;;;;;;;60.45;56.13;;;22.40;81.20;;;;;;5053106;28;20395;-77
2022/08/16 08:58:52;;;;;;;59.38;54.38;;;22.20;81.60;;;;;;5036000;28;20048;-77
2022/08/16 09:01:20;;;;;;;61.63;57.08;;;22.40;81.80;;;;;;5053521;28;20037;-77
2022/08/16 09:03:46;;;;;;;70.63;65.85;;;22.60;81.10;;;;;;5035826;28;20044;-77
2022/08/16 09:06:12;;;;;;;67.25;62.58;;;22.70;80.80;;;;;;5053861;28;20036;-77
2022/08/16 09:08:39;;;;;;;49.72;45.97;;;22.70;80.70;;;;;;5035730;28;20033;-77
2022/08/16 09:11:05;;;;;;;56.10;52.40;;;22.50;80.20;;;;;;5036036;28;20405;-77
2022/08/16 09:13:31;;;;;;;46.47;42.92;;;22.40;81.30;;;;;;5053624;28;20021;-77
2022/08/16 09:15:58;;;;;;;46.60;43.13;;;22.60;80.20;;;;;;5035348;28;20395;-76
2022/08/16 09:18:24;;;;;;;61.03;56.75;;;22.70;79.70;;;;;;5035892;28;20133;-77
2022/08/16 09:20:51;;;;;;;44.78;41.42;;;22.90;79.70;;;;;;5052599;28;20033;-77
2022/08/16 09:23:18;;;;;;;46.75;43.22;;;23.10;78.60;;;;;;5052334;28;20452;-76
2022/08/16 09:25:44;;;;;;;52.42;48.58;;;23.20;77.80;;;;;;5052415;28;20040;-77
2022/08/16 09:28:10;;;;;;;51.90;48.70;;;23.30;77.40;;;;;;5052538;28;20017;-77
2022/08/16 09:30:37;;;;;;;62.67;58.67;;;23.30;77.10;;;;;;5034888;28;20472;-77
2022/08/16 09:33:03;;;;;;;60.67;56.85;;;23.40;77.20;;;;;;5052325;28;20475;-77
2022/08/16 09:35:29;;;;;;;50.20;47.03;;;23.40;77.20;;;;;;5051641;28;20029;-77
2022/08/16 09:37:56;;;;;;;54.33;50.95;;;23.50;74.70;;;;;;5052072;28;20029;-77
2022/08/16 09:40:22;;;;;;;39.60;36.67;;;23.50;75.80;;;;;;5035362;28;20037;-77
2022/08/16 09:42:48;;;;;;;45.08;42.10;;;23.70;75.00;;;;;;5052109;28;20052;-76
2022/08/16 09:45:14;;;;;;;48.80;45.72;;;24.00;74.70;;;;;;5035920;28;20033;-77
2022/08/16 09:47:41;;;;;;;48.75;45.85;;;24.30;73.70;;;;;;5035715;28;20045;-77
2022/08/16 09:50:08;;;;;;;66.22;62.50;;;24.40;69.00;;;;;;5051673;28;20044;-77
2022/08/16 09:52:36;;;;;;;54.67;50.95;;;24.50;67.90;;;;;;5035541;28;20033;-77
2022/08/16 09:55:07;;;;;;;57.70;54.33;;;24.40;69.20;;;;;;5051951;28;20021;-77
2022/08/16 09:57:33;;;;;;;47.88;45.03;;;24.20;68.70;;;;;;5051889;28;20467;-77
2022/08/16 10:00:00;;;;;;;46.53;43.72;;;24.30;70.00;;;;;;5035152;28;20037;-77
2022/08/16 10:02:27;;;;;;;43.95;41.03;;;24.60;69.90;;;;;;5051324;28;20487;-77
2022/08/16 10:04:55;;;;;;;33.63;31.52;;;24.70;66.60;;;;;;5033762;28;20033;-77
2022/08/16 10:07:22;;;;;;;33.35;31.45;;;24.80;63.90;;;;;;5051513;28;20037;-77
2022/08/16 10:09:48;;;;;;;32.22;30.25;;;24.80;64.30;;;;;;5034883;28;20399;-77
2022/08/16 10:14:58;;;;;;;29.88;28.05;;;25.00;60.70;;;;;;5053367;28;20494;-76
2022/08/16 10:17:24;;;;;;;33.05;30.73;;;25.00;62.70;;;;;;5050929;28;20033;-78
2022/08/16 10:19:51;;;;;;;31.58;29.83;;;25.20;63.40;;;;;;5051162;28;20384;-76
2022/08/16 10:22:17;;;;;;;31.80;29.90;;;25.30;61.60;;;;;;5051728;28;20036;-79
2022/08/16 10:24:44;;;;;;;31.75;29.67;;;25.50;61.10;;;;;;5034733;28;20056;-80
2022/08/16 10:27:10;;;;;;;30.60;28.70;;;25.50;61.10;;;;;;5052697;28;20499;-77
2022/08/16 10:29:37;;;;;;;32.53;30.63;;;25.40;60.90;;;;;;5034328;28;20049;-78
2022/08/16 10:32:03;;;;;;;30.63;28.83;;;25.50;60.70;;;;;;5050988;28;20040;-78
2022/08/16 10:34:29;;;;;;;32.55;30.80;;;25.50;59.10;;;;;;5034413;28;20468;-78
2022/08/16 10:36:55;;;;;;;42.05;39.75;;;25.60;59.00;;;;;;5051229;28;20037;-78
2022/08/16 10:39:22;;;;;;;39.05;36.85;;;25.60;58.80;;;;;;5050989;28;20031;-78
2022/08/16 10:41:48;;;;;;;41.03;38.63;;;25.60;58.70;;;;;;5051153;28;20017;-78
2022/08/16 10:44:14;;;;;;;41.97;39.53;;;25.60;58.80;;;;;;5042625;28;20038;-78
2022/08/16 10:46:41;;;;;;;42.78;40.30;;;25.60;59.00;;;;;;5042203;28;20515;-78
2022/08/16 10:49:08;;;;;;;48.75;45.85;;;25.60;59.00;;;;;;5050691;28;20021;-78
2022/08/16 10:51:37;;;;;;;51.65;48.80;;;25.60;59.10;;;;;;5034523;28;20396;-79
2022/08/16 10:54:03;;;;;;;46.47;43.92;;;25.60;59.80;;;;;;5034768;28;20037;-78
2022/08/16 10:56:29;;;;;;;43.72;41.28;;;25.60;59.90;;;;;;5034090;28;20041;-79
2022/08/16 10:58:57;;;;;;;45.25;42.78;;;25.60;59.50;;;;;;5050675;28;20036;-78
2022/08/16 11:01:24;;;;;;;43.58;41.10;;;25.60;60.00;;;;;;5049896;28;20036;-78
2022/08/16 11:03:52;;;;;;;44.03;41.55;;;25.50;59.40;;;;;;5050437;28;20017;-78
2022/08/16 11:06:18;;;;;;;35.20;32.90;;;25.60;59.60;;;;;;5050477;28;20062;-78
2022/08/16 11:08:44;;;;;;;39.88;37.33;;;25.60;59.00;;;;;;5033785;28;20033;-77
2022/08/16 11:11:12;;;;;;;40.53;38.28;;;25.60;59.10;;;;;;5033796;28;20043;-77
2022/08/16 11:13:38;;;;;;;37.55;35.17;;;25.70;58.90;;;;;;5050349;28;20405;-77
2022/08/16 11:16:04;;;;;;;34.38;32.33;;;25.60;58.60;;;;;;5032719;28;20510;-77
2022/08/16 11:18:31;;;;;;;36.50;34.42;;;25.50;58.50;;;;;;5050029;28;20033;-77
2022/08/16 11:20:57;;;;;;;38.88;36.63;;;25.40;58.80;;;;;;5050252;28;20032;-77
2022/08/16 11:23:24;;;;;;;36.25;34.10;;;25.30;59.10;;;;;;5033553;28;20043;-77
2022/08/16 11:25:51;;;;;;;35.88;33.75;;;25.20;58.80;;;;;;5050389;28;20025;-77
2022/08/16 11:28:17;;;;;;;38.05;35.85;;;25.10;58.60;;;;;;5033375;28;20475;-78
2022/08/16 11:30:43;;;;;;;38.50;36.25;;;24.90;58.90;;;;;;5050906;28;20040;-77
2022/08/16 11:33:09;;;;;;;38.35;36.05;;;24.90;59.00;;;;;;5033581;28;20050;-78
2022/08/16 11:35:35;;;;;;;38.63;36.50;;;24.90;59.10;;;;;;5049945;28;20036;-78
2022/08/16 11:38:04;;;;;;;39.55;37.35;;;25.00;58.90;;;;;;5049951;28;20020;-77
2022/08/16 11:40:36;;;;;;;41.55;39.05;;;25.00;59.90;;;;;;5034069;28;20025;-77
2022/08/16 11:43:03;;;;;;;78.05;73.82;;;25.00;60.70;;;;;;5014215;28;20025;-77
2022/08/16 11:45:29;;;;;;;63.35;59.63;;;24.90;62.10;;;;;;5031658;28;20073;-77
2022/08/16 11:47:55;;;;;;;59.78;56.42;;;24.90;62.30;;;;;;5049384;28;20415;-77
2022/08/16 11:50:23;;;;;;;45.33;42.67;;;24.90;62.80;;;;;;5033440;28;20025;-77
2022/08/16 11:52:49;;;;;;;50.10;47.30;;;24.90;63.90;;;;;;5017039;28;20048;-78
2022/08/16 11:55:15;;;;;;;42.22;39.40;;;24.90;63.50;;;;;;5050014;28;20017;-77
2022/08/16 11:57:41;;;;;;;46.22;43.47;;;25.00;64.20;;;;;;5033213;28;20036;-77
2022/08/16 12:00:10;;;;;;;49.17;46.47;;;25.00;64.20;;;;;;5049401;28;20029;-78
2022/08/16 12:02:37;;;;;;;51.78;48.83;;;25.00;63.80;;;;;;5049314;28;20391;-77
2022/08/16 12:05:07;;;;;;;44.95;42.40;;;25.10;64.00;;;;;;5033317;28;20455;-77
2022/08/16 12:07:33;;;;;;;50.38;47.63;;;25.10;63.80;;;;;;5016857;28;20045;-77
2022/08/16 12:10:00;;;;;;;41.45;38.95;;;25.20;63.00;;;;;;5049575;28;20033;-78
2022/08/16 12:12:26;;;;;;;53.63;50.67;;;25.30;63.30;;;;;;5032908;28;20044;-77
2022/08/16 12:14:52;;;;;;;46.53;43.80;;;25.30;63.10;;;;;;5050752;28;20379;-77
2022/08/16 12:17:19;;;;;;;49.78;46.95;;;25.30;63.40;;;;;;5048538;28;20033;-78
2022/08/16 12:19:45;;;;;;;58.88;55.70;;;25.40;62.90;;;;;;5033371;28;20075;-77
2022/08/16 12:22:11;;;;;;;48.45;45.90;;;25.50;61.50;;;;;;5049575;28;20029;-78
2022/08/16 12:24:38;;;;;;;52.17;49.13;;;25.40;61.20;;;;;;5032992;28;20025;-78
2022/08/16 12:27:04;;;;;;;50.65;47.70;;;25.40;62.60;;;;;;5051642;28;20049;-78